Time;durP1;ratioP1;P1;durP2;ratioP2;P2;SDS_P1;SDS_P2;PMS_P1;PMS_P2;Temp;Humidity;BMP_temperature;BMP_pressure;BME280_temperature;BME280_humidity;BME280_pressure;Samples;Min_cycle;Max_cycle;Signal;HPM_P1;HPM_P2
2022/08/10 19:36:14;;;;;;;8.25;2.70;;;;;;;;;;6839690;19;34424;-76
2022/08/10 19:38:44;;;;;;;12.98;4.00;;;;;;;;;;7361182;19;20092;-80
2022/08/10 19:41:09;;;;;;;8.68;2.85;;;;;;;;;;7378569;19;20011;-75
2022/08/10 19:43:37;;;;;;;6.70;2.55;;;;;;;;;;7364607;19;20120;-77
2022/08/10 19:46:25;;;;;;;5.28;2.45;;;;;;;;;;7381609;19;20003;-76
2022/08/10 19:48:54;;;;;;;6.82;2.83;;;;;;;;;;7383829;19;20051;-77
2022/08/10 19:51:35;;;;;;;7.30;2.90;;;;;;;;;;7381740;19;20085;-76
2022/08/10 19:54:03;;;;;;;7.53;2.95;;;;;;;;;;7377978;19;20122;-75
2022/08/10 19:56:40;;;;;;;7.13;2.90;;;;;;;;;;7384193;19;20010;-74
2022/08/10 19:59:05;;;;;;;9.57;3.78;;;;;;;;;;7387647;19;20021;-77
2022/08/10 20:01:30;;;;;;;8.50;2.97;;;;;;;;;;7384687;19;20098;-74
2022/08/10 20:04:01;;;;;;;8.53;3.13;;;;;;;;;;7380931;19;20010;-74
2022/08/10 20:06:26;;;;;;;10.60;3.00;;;;;;;;;;7384052;19;20309;-76
2022/08/10 20:08:51;;;;;;;7.50;3.40;;;;;;;;;;7381822;19;20031;-77
2022/08/10 20:11:25;;;;;;;10.80;3.25;;;;;;;;;;7380746;19;20774;-77
2022/08/10 20:14:02;;;;;;;8.30;3.78;;;;;;;;;;7382192;19;20003;-77
2022/08/10 20:16:29;;;;;;;9.93;3.20;;;;;;;;;;7386264;19;20022;-76
2022/08/10 20:19:21;;;;;;;8.25;3.50;;;;;;;;;;7380491;19;20015;-79
2022/08/10 20:21:53;;;;;;;8.23;2.88;;;;;;;;;;7375831;19;19999;-76
2022/08/10 20:24:23;;;;;;;6.03;2.88;;;;;;;;;;7381883;19;20006;-76
2022/08/10 20:27:11;;;;;;;6.95;2.55;;;;;;;;;;7379694;19;20010;-77
2022/08/10 20:29:40;;;;;;;7.85;2.70;;;;;;;;;;7379234;19;20007;-77
2022/08/10 20:32:15;;;;;;;5.57;2.83;;;;;;;;;;7386794;19;20081;-76
2022/08/10 20:35:00;;;;;;;7.45;2.60;;;;;;;;;;7377927;19;20022;-77
2022/08/10 20:37:31;;;;;;;5.45;2.35;;;;;;;;;;7381227;19;20018;-75
2022/08/10 20:40:11;;;;;;;5.07;2.28;;;;;;;;;;7375809;19;20549;-77
2022/08/10 20:42:39;;;;;;;8.07;2.80;;;;;;;;;;7379756;19;20022;-77
2022/08/10 20:45:12;;;;;;;14.38;7.32;;;;;;;;;;7383370;19;20002;-76
2022/08/10 20:47:41;;;;;;;6.88;3.55;;;;;;;;;;7380392;19;20637;-76
2022/08/10 20:50:15;;;;;;;7.00;2.92;;;;;;;;;;7374602;19;20044;-79
2022/08/10 20:52:42;;;;;;;7.68;3.80;;;;;;;;;;7379003;19;20014;-74
2022/08/10 20:55:08;;;;;;;10.75;3.10;;;;;;;;;;7376618;19;20003;-78
2022/08/10 20:57:56;;;;;;;7.85;2.90;;;;;;;;;;7383581;19;20011;-79
2022/08/10 21:00:21;;;;;;;8.73;3.38;;;;;;;;;;7379187;19;20010;-78
2022/08/10 21:03:04;;;;;;;8.10;2.95;;;;;;;;;;7380053;19;20450;-74
2022/08/10 21:05:39;;;;;;;8.27;3.20;;;;;;;;;;7378968;19;20277;-75
2022/08/10 21:08:18;;;;;;;7.45;3.00;;;;;;;;;;7382336;19;20021;-77
2022/08/10 21:11:03;;;;;;;8.35;2.88;;;;;;;;;;7378837;19;20508;-75
2022/08/10 21:13:40;;;;;;;6.38;3.10;;;;;;;;;;7380939;19;20002;-76
2022/08/10 21:16:23;;;;;;;11.70;6.43;;;;;;;;;;7384135;19;20010;-74
2022/08/10 21:18:51;;;;;;;8.77;3.80;;;;;;;;;;7372571;19;20014;-77
2022/08/10 21:21:17;;;;;;;8.50;3.83;;;;;;;;;;7374648;19;20031;-76
2022/08/10 21:23:47;;;;;;;7.20;3.20;;;;;;;;;;7382832;19;19995;-75
2022/08/10 22:53:22;;;;;;;8.18;3.22;;;;;;;;;;7382111;19;20014;-93
2022/08/10 22:58:40;;;;;;;8.82;3.13;;;;;;;;;;7381926;19;20029;-91
2022/08/10 23:01:05;;;;;;;8.88;3.00;;;;;;;;;;7380184;19;20749;-93
2022/08/10 23:03:35;;;;;;;8.13;2.88;;;;;;;;;;7389788;19;20018;-94
2022/08/10 23:06:10;;;;;;;8.82;2.80;;;;;;;;;;7386818;19;20349;-93
2022/08/10 23:08:45;;;;;;;7.40;2.55;;;;;;;;;;7391648;19;19994;-93
2022/08/10 23:11:14;;;;;;;8.27;2.83;;;;;;;;;;7388120;19;20098;-92
2022/08/10 23:13:42;;;;;;;7.22;2.83;;;;;;;;;;7389521;19;20472;-92
2022/08/10 23:21:52;;;;;;;8.45;3.00;;;;;;;;;;7391306;19;20031;-92
2022/08/10 23:24:25;;;;;;;9.48;2.80;;;;;;;;;;7389418;19;20010;-93
2022/08/10 23:26:53;;;;;;;7.83;2.60;;;;;;;;;;7391361;19;20006;-93
2022/08/10 23:29:22;;;;;;;5.88;2.53;;;;;;;;;;7390903;19;20026;-93
2022/08/10 23:31:49;;;;;;;6.68;2.80;;;;;;;;;;7390918;19;20003;-93
2022/08/10 23:34:19;;;;;;;6.57;3.20;;;;;;;;;;7391390;19;20021;-92
2022/08/10 23:36:47;;;;;;;5.50;2.90;;;;;;;;;;7392287;19;20027;-91
2022/08/10 23:39:13;;;;;;;6.25;2.58;;;;;;;;;;7392890;19;20022;-92
2022/08/10 23:41:39;;;;;;;8.52;3.00;;;;;;;;;;7395092;19;20006;-92
2022/08/10 23:44:05;;;;;;;8.93;3.40;;;;;;;;;;7389578;19;20619;-92
2022/08/10 23:46:31;;;;;;;7.57;3.30;;;;;;;;;;7388759;19;20052;-93
2022/08/10 23:48:59;;;;;;;6.30;3.38;;;;;;;;;;7388733;19;20002;-92
2022/08/10 23:51:29;;;;;;;6.60;3.22;;;;;;;;;;7390428;19;20010;-92
2022/08/10 23:53:55;;;;;;;8.88;3.50;;;;;;;;;;7388461;19;20014;-92
2022/08/10 23:56:21;;;;;;;9.80;3.00;;;;;;;;;;7388679;19;20062;-92
2022/08/10 23:58:51;;;;;;;6.13;3.05;;;;;;;;;;7391130;19;20028;-91
